sensor_id;sensor_type;location;lat;lon;timestamp;temperature;humidity
70421;SHT31;57848;51.938;15.520;2022-08-19T00:01:41;23.75;74.48
70421;SHT31;57848;51.938;15.520;2022-08-19T00:04:09;23.84;75.38
70421;SHT31;57848;51.938;15.520;2022-08-19T00:06:37;23.84;75.19
70421;SHT31;57848;51.938;15.520;2022-08-19T00:09:04;23.91;74.47
70421;SHT31;57848;51.938;15.520;2022-08-19T00:11:29;23.93;75.59
70421;SHT31;57848;51.938;15.520;2022-08-19T00:13:55;23.91;76.11
70421;SHT31;57848;51.938;15.520;2022-08-19T00:16:22;23.90;75.66
70421;SHT31;57848;51.938;15.520;2022-08-19T00:18:48;23.90;76.11
70421;SHT31;57848;51.938;15.520;2022-08-19T00:21:13;23.88;75.12
70421;SHT31;57848;51.938;15.520;2022-08-19T00:23:40;23.87;75.43
70421;SHT31;57848;51.938;15.520;2022-08-19T00:26:06;23.85;74.78
70421;SHT31;57848;51.938;15.520;2022-08-19T00:28:32;23.80;75.26
70421;SHT31;57848;51.938;15.520;2022-08-19T00:30:59;23.73;75.59
70421;SHT31;57848;51.938;15.520;2022-08-19T00:33:25;23.75;75.84
70421;SHT31;57848;51.938;15.520;2022-08-19T00:35:50;23.69;75.59
70421;SHT31;57848;51.938;15.520;2022-08-19T00:38:15;23.60;76.05
70421;SHT31;57848;51.938;15.520;2022-08-19T00:40:44;23.56;75.00
70421;SHT31;57848;51.938;15.520;2022-08-19T00:43:12;23.53;75.51
70421;SHT31;57848;51.938;15.520;2022-08-19T00:45:40;23.54;75.67
70421;SHT31;57848;51.938;15.520;2022-08-19T00:48:09;23.53;75.31
70421;SHT31;57848;51.938;15.520;2022-08-19T00:50:35;23.47;75.15
70421;SHT31;57848;51.938;15.520;2022-08-19T00:53:01;23.47;75.58
70421;SHT31;57848;51.938;15.520;2022-08-19T00:55:30;23.43;75.66
70421;SHT31;57848;51.938;15.520;2022-08-19T00:57:59;23.40;75.32
70421;SHT31;57848;51.938;15.520;2022-08-19T01:00:27;23.33;75.61
70421;SHT31;57848;51.938;15.520;2022-08-19T01:02:53;23.32;75.41
70421;SHT31;57848;51.938;15.520;2022-08-19T01:05:23;23.36;75.42
70421;SHT31;57848;51.938;15.520;2022-08-19T01:07:50;23.42;75.36
70421;SHT31;57848;51.938;15.520;2022-08-19T01:10:18;23.39;75.06
70421;SHT31;57848;51.938;15.520;2022-08-19T01:12:45;23.36;75.25
70421;SHT31;57848;51.938;15.520;2022-08-19T01:15:14;23.42;74.59
70421;SHT31;57848;51.938;15.520;2022-08-19T01:17:42;23.36;75.04
70421;SHT31;57848;51.938;15.520;2022-08-19T01:20:13;23.34;74.82
70421;SHT31;57848;51.938;15.520;2022-08-19T01:25:16;23.32;74.18
70421;SHT31;57848;51.938;15.520;2022-08-19T01:27:44;23.34;74.28
70421;SHT31;57848;51.938;15.520;2022-08-19T01:30:16;23.26;74.15
70421;SHT31;57848;51.938;15.520;2022-08-19T01:32:42;23.33;73.16
70421;SHT31;57848;51.938;15.520;2022-08-19T01:35:09;23.30;73.34
70421;SHT31;57848;51.938;15.520;2022-08-19T01:37:51;23.42;72.95
70421;SHT31;57848;51.938;15.520;2022-08-19T01:40:19;23.46;72.72
70421;SHT31;57848;51.938;15.520;2022-08-19T01:42:46;23.39;72.86
70421;SHT31;57848;51.938;15.520;2022-08-19T01:45:12;23.29;72.98
70421;SHT31;57848;51.938;15.520;2022-08-19T01:47:39;23.39;73.21
70421;SHT31;57848;51.938;15.520;2022-08-19T01:50:06;23.30;73.37
70421;SHT31;57848;51.938;15.520;2022-08-19T01:52:35;23.36;73.24
70421;SHT31;57848;51.938;15.520;2022-08-19T01:55:00;23.30;72.60
70421;SHT31;57848;51.938;15.520;2022-08-19T01:57:26;23.42;72.56
70421;SHT31;57848;51.938;15.520;2022-08-19T01:59:51;23.42;73.54
70421;SHT31;57848;51.938;15.520;2022-08-19T02:02:16;23.27;75.10
70421;SHT31;57848;51.938;15.520;2022-08-19T02:04:42;23.06;75.36
70421;SHT31;57848;51.938;15.520;2022-08-19T02:07:07;22.95;75.84
70421;SHT31;57848;51.938;15.520;2022-08-19T02:09:33;22.88;76.40
70421;SHT31;57848;51.938;15.520;2022-08-19T02:11:59;22.85;76.18
70421;SHT31;57848;51.938;15.520;2022-08-19T02:14:24;22.74;76.42
70421;SHT31;57848;51.938;15.520;2022-08-19T02:16:49;22.58;77.02
70421;SHT31;57848;51.938;15.520;2022-08-19T02:19:15;22.60;77.22
70421;SHT31;57848;51.938;15.520;2022-08-19T02:21:40;22.41;77.79
70421;SHT31;57848;51.938;15.520;2022-08-19T02:24:06;22.40;77.48
70421;SHT31;57848;51.938;15.520;2022-08-19T02:26:32;22.44;77.60
70421;SHT31;57848;51.938;15.520;2022-08-19T02:28:57;22.41;77.32
70421;SHT31;57848;51.938;15.520;2022-08-19T02:31:24;22.43;77.67
70421;SHT31;57848;51.938;15.520;2022-08-19T02:33:50;22.40;77.84
70421;SHT31;57848;51.938;15.520;2022-08-19T02:36:17;22.40;77.96
70421;SHT31;57848;51.938;15.520;2022-08-19T02:38:43;22.37;77.48
70421;SHT31;57848;51.938;15.520;2022-08-19T02:41:17;22.30;77.70
70421;SHT31;57848;51.938;15.520;2022-08-19T02:43:43;22.25;78.04
70421;SHT31;57848;51.938;15.520;2022-08-19T02:46:23;22.20;78.20
70421;SHT31;57848;51.938;15.520;2022-08-19T02:48:51;22.17;78.31
70421;SHT31;57848;51.938;15.520;2022-08-19T02:51:26;22.17;78.10
70421;SHT31;57848;51.938;15.520;2022-08-19T02:53:51;22.09;78.10
70421;SHT31;57848;51.938;15.520;2022-08-19T02:56:17;22.10;78.24
70421;SHT31;57848;51.938;15.520;2022-08-19T02:58:43;22.06;78.43
70421;SHT31;57848;51.938;15.520;2022-08-19T03:01:09;21.97;78.25
70421;SHT31;57848;51.938;15.520;2022-08-19T03:03:36;21.88;78.60
70421;SHT31;57848;51.938;15.520;2022-08-19T03:06:10;21.92;78.09
70421;SHT31;57848;51.938;15.520;2022-08-19T03:08:39;21.86;78.48
70421;SHT31;57848;51.938;15.520;2022-08-19T03:11:04;21.88;78.55
70421;SHT31;57848;51.938;15.520;2022-08-19T03:13:30;21.86;78.22
70421;SHT31;57848;51.938;15.520;2022-08-19T03:15:55;21.93;77.97
70421;SHT31;57848;51.938;15.520;2022-08-19T03:18:21;21.89;78.23
70421;SHT31;57848;51.938;15.520;2022-08-19T03:20:48;21.92;78.27
70421;SHT31;57848;51.938;15.520;2022-08-19T03:23:15;21.88;78.14
70421;SHT31;57848;51.938;15.520;2022-08-19T03:25:45;21.85;78.11
70421;SHT31;57848;51.938;15.520;2022-08-19T03:28:11;21.81;78.22
70421;SHT31;57848;51.938;15.520;2022-08-19T03:30:37;21.81;78.06
70421;SHT31;57848;51.938;15.520;2022-08-19T03:33:02;21.79;77.92
70421;SHT31;57848;51.938;15.520;2022-08-19T03:35:28;21.85;77.82
70421;SHT31;57848;51.938;15.520;2022-08-19T03:37:53;21.71;78.24
70421;SHT31;57848;51.938;15.520;2022-08-19T03:40:18;21.69;78.38
70421;SHT31;57848;51.938;15.520;2022-08-19T03:42:44;21.67;78.16
70421;SHT31;57848;51.938;15.520;2022-08-19T03:45:11;21.69;78.05
70421;SHT31;57848;51.938;15.520;2022-08-19T03:47:37;21.69;77.79
70421;SHT31;57848;51.938;15.520;2022-08-19T03:50:03;21.73;77.65
70421;SHT31;57848;51.938;15.520;2022-08-19T03:52:29;21.72;77.33
70421;SHT31;57848;51.938;15.520;2022-08-19T03:54:55;21.76;77.20
70421;SHT31;57848;51.938;15.520;2022-08-19T03:57:20;21.78;77.09
70421;SHT31;57848;51.938;15.520;2022-08-19T03:59:45;21.75;77.20
70421;SHT31;57848;51.938;15.520;2022-08-19T04:02:11;21.82;76.88
70421;SHT31;57848;51.938;15.520;2022-08-19T04:04:38;21.79;77.01
70421;SHT31;57848;51.938;15.520;2022-08-19T04:07:05;21.79;77.21
70421;SHT31;57848;51.938;15.520;2022-08-19T04:09:30;21.76;77.08
70421;SHT31;57848;51.938;15.520;2022-08-19T04:11:57;21.78;77.36
70421;SHT31;57848;51.938;15.520;2022-08-19T04:14:25;21.79;77.03
70421;SHT31;57848;51.938;15.520;2022-08-19T04:16:51;21.75;76.89
70421;SHT31;57848;51.938;15.520;2022-08-19T04:19:18;21.79;76.65
70421;SHT31;57848;51.938;15.520;2022-08-19T04:21:46;21.83;76.58
70421;SHT31;57848;51.938;15.520;2022-08-19T04:24:12;21.83;76.86
70421;SHT31;57848;51.938;15.520;2022-08-19T04:26:38;21.89;76.70
70421;SHT31;57848;51.938;15.520;2022-08-19T04:29:08;21.99;76.58
70421;SHT31;57848;51.938;15.520;2022-08-19T04:31:34;22.04;76.16
70421;SHT31;57848;51.938;15.520;2022-08-19T04:34:02;22.03;76.32
70421;SHT31;57848;51.938;15.520;2022-08-19T04:36:30;22.07;76.00
70421;SHT31;57848;51.938;15.520;2022-08-19T04:38:59;22.10;75.75
70421;SHT31;57848;51.938;15.520;2022-08-19T04:41:25;22.13;75.59
70421;SHT31;57848;51.938;15.520;2022-08-19T04:44:09;22.16;75.35
70421;SHT31;57848;51.938;15.520;2022-08-19T04:46:35;22.17;75.40
70421;SHT31;57848;51.938;15.520;2022-08-19T04:49:02;22.23;75.10
70421;SHT31;57848;51.938;15.520;2022-08-19T04:51:29;22.29;74.62
70421;SHT31;57848;51.938;15.520;2022-08-19T04:53:56;22.27;74.63
70421;SHT31;57848;51.938;15.520;2022-08-19T04:56:22;22.33;74.60
70421;SHT31;57848;51.938;15.520;2022-08-19T04:58:48;22.29;74.58
70421;SHT31;57848;51.938;15.520;2022-08-19T05:01:18;22.25;74.61
70421;SHT31;57848;51.938;15.520;2022-08-19T05:03:43;22.30;74.60
70421;SHT31;57848;51.938;15.520;2022-08-19T05:06:12;22.25;74.68
70421;SHT31;57848;51.938;15.520;2022-08-19T05:08:39;22.21;74.74
70421;SHT31;57848;51.938;15.520;2022-08-19T05:11:17;22.23;74.74
70421;SHT31;57848;51.938;15.520;2022-08-19T05:13:44;22.31;74.53
70421;SHT31;57848;51.938;15.520;2022-08-19T05:16:11;22.25;74.48
70421;SHT31;57848;51.938;15.520;2022-08-19T05:18:37;22.37;74.58
70421;SHT31;57848;51.938;15.520;2022-08-19T05:21:22;22.31;74.62
70421;SHT31;57848;51.938;15.520;2022-08-19T05:24:06;22.33;74.56
70421;SHT31;57848;51.938;15.520;2022-08-19T05:26:36;22.31;74.68
70421;SHT31;57848;51.938;15.520;2022-08-19T05:29:02;22.33;74.79
70421;SHT31;57848;51.938;15.520;2022-08-19T05:31:27;22.37;74.21
70421;SHT31;57848;51.938;15.520;2022-08-19T05:33:52;22.37;74.37
70421;SHT31;57848;51.938;15.520;2022-08-19T05:36:18;22.37;74.10
70421;SHT31;57848;51.938;15.520;2022-08-19T05:38:45;22.41;74.19
70421;SHT31;57848;51.938;15.520;2022-08-19T05:41:12;22.44;73.75
70421;SHT31;57848;51.938;15.520;2022-08-19T05:43:38;22.47;73.71
70421;SHT31;57848;51.938;15.520;2022-08-19T05:46:06;22.50;73.46
70421;SHT31;57848;51.938;15.520;2022-08-19T05:48:35;22.57;73.40
70421;SHT31;57848;51.938;15.520;2022-08-19T05:51:05;22.61;73.32
70421;SHT31;57848;51.938;15.520;2022-08-19T05:53:32;22.68;73.40
70421;SHT31;57848;51.938;15.520;2022-08-19T05:56:03;22.82;72.95
70421;SHT31;57848;51.938;15.520;2022-08-19T05:58:29;22.78;73.45
70421;SHT31;57848;51.938;15.520;2022-08-19T06:00:54;22.79;73.32
70421;SHT31;57848;51.938;15.520;2022-08-19T06:03:19;22.84;73.21
70421;SHT31;57848;51.938;15.520;2022-08-19T06:05:45;22.94;73.07
70421;SHT31;57848;51.938;15.520;2022-08-19T06:08:11;23.05;72.77
70421;SHT31;57848;51.938;15.520;2022-08-19T06:10:36;23.16;72.47
70421;SHT31;57848;51.938;15.520;2022-08-19T06:13:02;23.19;72.25
70421;SHT31;57848;51.938;15.520;2022-08-19T06:15:27;23.23;72.66
70421;SHT31;57848;51.938;15.520;2022-08-19T06:17:53;23.30;71.97
70421;SHT31;57848;51.938;15.520;2022-08-19T06:20:19;23.42;71.75
70421;SHT31;57848;51.938;15.520;2022-08-19T06:22:49;23.49;71.40
70421;SHT31;57848;51.938;15.520;2022-08-19T06:25:16;23.49;70.73
70421;SHT31;57848;51.938;15.520;2022-08-19T06:27:42;23.49;70.98
70421;SHT31;57848;51.938;15.520;2022-08-19T06:30:08;23.43;71.28
70421;SHT31;57848;51.938;15.520;2022-08-19T06:32:35;23.51;71.06
70421;SHT31;57848;51.938;15.520;2022-08-19T06:35:00;23.49;71.01
70421;SHT31;57848;51.938;15.520;2022-08-19T06:37:25;23.56;70.94
70421;SHT31;57848;51.938;15.520;2022-08-19T06:39:51;23.49;71.52
70421;SHT31;57848;51.938;15.520;2022-08-19T06:42:16;23.56;71.28
70421;SHT31;57848;51.938;15.520;2022-08-19T06:44:46;23.57;71.21
70421;SHT31;57848;51.938;15.520;2022-08-19T06:47:14;23.63;70.57
70421;SHT31;57848;51.938;15.520;2022-08-19T06:49:41;23.73;70.63
70421;SHT31;57848;51.938;15.520;2022-08-19T06:52:07;23.80;70.12
70421;SHT31;57848;51.938;15.520;2022-08-19T06:54:33;23.88;70.19
70421;SHT31;57848;51.938;15.520;2022-08-19T06:56:59;23.85;70.14
70421;SHT31;57848;51.938;15.520;2022-08-19T06:59:27;23.88;70.02
70421;SHT31;57848;51.938;15.520;2022-08-19T07:01:55;24.00;70.13
70421;SHT31;57848;51.938;15.520;2022-08-19T07:04:23;23.96;69.92
70421;SHT31;57848;51.938;15.520;2022-08-19T07:06:52;24.08;69.90
70421;SHT31;57848;51.938;15.520;2022-08-19T07:09:21;24.18;70.09
70421;SHT31;57848;51.938;15.520;2022-08-19T07:11:49;24.28;69.33
70421;SHT31;57848;51.938;15.520;2022-08-19T07:14:16;24.38;70.00
70421;SHT31;57848;51.938;15.520;2022-08-19T07:16:44;24.52;68.79
70421;SHT31;57848;51.938;15.520;2022-08-19T07:19:11;24.52;68.71
70421;SHT31;57848;51.938;15.520;2022-08-19T07:21:37;24.56;68.79
70421;SHT31;57848;51.938;15.520;2022-08-19T07:24:02;24.69;68.79
70421;SHT31;57848;51.938;15.520;2022-08-19T07:26:31;24.84;67.46
70421;SHT31;57848;51.938;15.520;2022-08-19T07:28:57;24.84;68.13
70421;SHT31;57848;51.938;15.520;2022-08-19T07:31:26;24.99;67.66
70421;SHT31;57848;51.938;15.520;2022-08-19T07:33:53;25.16;67.20
70421;SHT31;57848;51.938;15.520;2022-08-19T07:36:23;25.13;65.53
70421;SHT31;57848;51.938;15.520;2022-08-19T07:38:50;25.33;65.50
70421;SHT31;57848;51.938;15.520;2022-08-19T07:41:21;25.41;65.68
70421;SHT31;57848;51.938;15.520;2022-08-19T07:43:47;25.55;65.82
70421;SHT31;57848;51.938;15.520;2022-08-19T07:46:13;25.64;65.05
70421;SHT31;57848;51.938;15.520;2022-08-19T07:48:41;25.74;65.10
70421;SHT31;57848;51.938;15.520;2022-08-19T07:51:07;25.79;64.91
70421;SHT31;57848;51.938;15.520;2022-08-19T07:53:34;25.92;64.89
70421;SHT31;57848;51.938;15.520;2022-08-19T07:56:01;25.98;64.44
70421;SHT31;57848;51.938;15.520;2022-08-19T07:58:28;26.03;64.95
70421;SHT31;57848;51.938;15.520;2022-08-19T08:00:54;26.12;64.23
70421;SHT31;57848;51.938;15.520;2022-08-19T08:03:21;26.23;63.51
70421;SHT31;57848;51.938;15.520;2022-08-19T08:06:10;26.36;63.54
70421;SHT31;57848;51.938;15.520;2022-08-19T08:08:53;26.37;62.54
70421;SHT31;57848;51.938;15.520;2022-08-19T08:11:42;26.44;63.22
70421;SHT31;57848;51.938;15.520;2022-08-19T08:14:08;26.47;62.92
70421;SHT31;57848;51.938;15.520;2022-08-19T08:16:38;26.46;63.42
70421;SHT31;57848;51.938;15.520;2022-08-19T08:19:07;26.40;63.67
70421;SHT31;57848;51.938;15.520;2022-08-19T08:21:33;26.25;63.41
70421;SHT31;57848;51.938;15.520;2022-08-19T08:23:59;26.17;63.52
70421;SHT31;57848;51.938;15.520;2022-08-19T08:26:25;26.12;64.62
70421;SHT31;57848;51.938;15.520;2022-08-19T08:28:51;26.16;64.20
70421;SHT31;57848;51.938;15.520;2022-08-19T08:31:17;25.98;64.29
70421;SHT31;57848;51.938;15.520;2022-08-19T08:33:46;25.85;65.38
70421;SHT31;57848;51.938;15.520;2022-08-19T08:36:13;25.89;65.86
70421;SHT31;57848;51.938;15.520;2022-08-19T08:38:40;25.86;65.29
70421;SHT31;57848;51.938;15.520;2022-08-19T08:41:12;25.68;65.28
70421;SHT31;57848;51.938;15.520;2022-08-19T08:43:45;25.74;65.79
70421;SHT31;57848;51.938;15.520;2022-08-19T08:46:39;25.86;65.02
70421;SHT31;57848;51.938;15.520;2022-08-19T08:49:24;25.86;64.14
70421;SHT31;57848;51.938;15.520;2022-08-19T08:51:57;25.74;64.26
70421;SHT31;57848;51.938;15.520;2022-08-19T08:54:48;25.78;64.58
70421;SHT31;57848;51.938;15.520;2022-08-19T08:57:17;26.12;64.54
70421;SHT31;57848;51.938;15.520;2022-08-19T08:59:47;26.29;63.96
70421;SHT31;57848;51.938;15.520;2022-08-19T09:02:16;26.50;63.61
70421;SHT31;57848;51.938;15.520;2022-08-19T09:04:42;26.68;62.93
70421;SHT31;57848;51.938;15.520;2022-08-19T09:09:41;26.78;62.51
70421;SHT31;57848;51.938;15.520;2022-08-19T09:12:16;26.61;61.89
70421;SHT31;57848;51.938;15.520;2022-08-19T09:14:50;26.77;61.79
70421;SHT31;57848;51.938;15.520;2022-08-19T09:17:19;26.70;62.12
70421;SHT31;57848;51.938;15.520;2022-08-19T09:19:55;26.81;61.72
70421;SHT31;57848;51.938;15.520;2022-08-19T09:22:21;26.99;61.38
70421;SHT31;57848;51.938;15.520;2022-08-19T09:24:49;26.87;61.54
70421;SHT31;57848;51.938;15.520;2022-08-19T09:27:15;26.83;61.91
70421;SHT31;57848;51.938;15.520;2022-08-19T09:29:41;26.78;62.14
70421;SHT31;57848;51.938;15.520;2022-08-19T09:32:06;26.60;61.88
70421;SHT31;57848;51.938;15.520;2022-08-19T09:34:32;26.60;62.66
70421;SHT31;57848;51.938;15.520;2022-08-19T09:36:58;26.47;62.78
70421;SHT31;57848;51.938;15.520;2022-08-19T09:39:25;26.37;63.33
70421;SHT31;57848;51.938;15.520;2022-08-19T09:41:51;26.48;63.56
70421;SHT31;57848;51.938;15.520;2022-08-19T09:44:16;26.44;63.13
70421;SHT31;57848;51.938;15.520;2022-08-19T09:46:41;26.06;64.08
70421;SHT31;57848;51.938;15.520;2022-08-19T09:49:07;26.02;63.86
70421;SHT31;57848;51.938;15.520;2022-08-19T09:51:33;25.88;64.07
70421;SHT31;57848;51.938;15.520;2022-08-19T09:54:03;25.96;64.09
70421;SHT31;57848;51.938;15.520;2022-08-19T09:56:29;26.16;64.27
70421;SHT31;57848;51.938;15.520;2022-08-19T09:58:58;26.23;63.49
70421;SHT31;57848;51.938;15.520;2022-08-19T10:01:26;26.40;63.25
70421;SHT31;57848;51.938;15.520;2022-08-19T10:03:53;26.70;62.23
70421;SHT31;57848;51.938;15.520;2022-08-19T10:06:20;26.88;62.15
70421;SHT31;57848;51.938;15.520;2022-08-19T10:08:46;26.94;61.76
70421;SHT31;57848;51.938;15.520;2022-08-19T10:11:12;26.78;62.40
70421;SHT31;57848;51.938;15.520;2022-08-19T10:13:42;26.65;63.08
70421;SHT31;57848;51.938;15.520;2022-08-19T10:16:10;27.47;61.05
70421;SHT31;57848;51.938;15.520;2022-08-19T10:18:37;28.47;58.02
70421;SHT31;57848;51.938;15.520;2022-08-19T10:21:17;29.55;55.65
70421;SHT31;57848;51.938;15.520;2022-08-19T10:23:46;29.51;55.79
70421;SHT31;57848;51.938;15.520;2022-08-19T10:26:18;29.26;56.28
70421;SHT31;57848;51.938;15.520;2022-08-19T10:28:44;29.91;55.64
70421;SHT31;57848;51.938;15.520;2022-08-19T10:31:17;30.08;53.48
70421;SHT31;57848;51.938;15.520;2022-08-19T10:33:43;30.77;52.35
70421;SHT31;57848;51.938;15.520;2022-08-19T10:36:20;31.02;50.69
70421;SHT31;57848;51.938;15.520;2022-08-19T10:38:51;31.78;48.82
70421;SHT31;57848;51.938;15.520;2022-08-19T10:41:22;32.43;47.82
70421;SHT31;57848;51.938;15.520;2022-08-19T10:43:56;32.72;46.59
70421;SHT31;57848;51.938;15.520;2022-08-19T10:46:23;33.50;45.75
70421;SHT31;57848;51.938;15.520;2022-08-19T10:48:49;33.89;44.46
70421;SHT31;57848;51.938;15.520;2022-08-19T10:51:15;34.14;44.04
70421;SHT31;57848;51.938;15.520;2022-08-19T10:54:00;33.37;45.45
70421;SHT31;57848;51.938;15.520;2022-08-19T10:56:26;32.85;46.33
70421;SHT31;57848;51.938;15.520;2022-08-19T10:59:10;32.68;46.77
70421;SHT31;57848;51.938;15.520;2022-08-19T11:01:37;32.26;48.41
70421;SHT31;57848;51.938;15.520;2022-08-19T11:04:04;31.83;48.28
70421;SHT31;57848;51.938;15.520;2022-08-19T11:06:31;31.94;49.06
70421;SHT31;57848;51.938;15.520;2022-08-19T11:08:57;31.58;48.65
70421;SHT31;57848;51.938;15.520;2022-08-19T11:11:22;30.76;50.63
70421;SHT31;57848;51.938;15.520;2022-08-19T11:13:49;29.82;52.89
70421;SHT31;57848;51.938;15.520;2022-08-19T11:16:19;29.43;54.12
70421;SHT31;57848;51.938;15.520;2022-08-19T11:18:50;29.29;55.01
70421;SHT31;57848;51.938;15.520;2022-08-19T11:21:21;29.70;54.37
70421;SHT31;57848;51.938;15.520;2022-08-19T11:23:49;29.29;54.98
70421;SHT31;57848;51.938;15.520;2022-08-19T11:26:16;28.96;55.86
70421;SHT31;57848;51.938;15.520;2022-08-19T11:28:41;28.40;57.03
70421;SHT31;57848;51.938;15.520;2022-08-19T11:31:15;28.07;58.14
70421;SHT31;57848;51.938;15.520;2022-08-19T11:33:41;27.84;58.85
70421;SHT31;57848;51.938;15.520;2022-08-19T11:36:07;27.53;60.11
70421;SHT31;57848;51.938;15.520;2022-08-19T11:38:33;27.46;59.78
70421;SHT31;57848;51.938;15.520;2022-08-19T11:41:02;27.09;61.18
70421;SHT31;57848;51.938;15.520;2022-08-19T11:43:28;27.15;61.29
70421;SHT31;57848;51.938;15.520;2022-08-19T11:45:54;26.78;61.94
70421;SHT31;57848;51.938;15.520;2022-08-19T11:48:21;26.91;61.77
70421;SHT31;57848;51.938;15.520;2022-08-19T11:50:50;26.84;61.43
70421;SHT31;57848;51.938;15.520;2022-08-19T11:53:17;26.57;61.97
70421;SHT31;57848;51.938;15.520;2022-08-19T11:55:43;26.78;61.96
70421;SHT31;57848;51.938;15.520;2022-08-19T11:58:11;26.92;61.70
70421;SHT31;57848;51.938;15.520;2022-08-19T12:00:38;26.74;61.92
70421;SHT31;57848;51.938;15.520;2022-08-19T12:03:03;27.66;59.98
70421;SHT31;57848;51.938;15.520;2022-08-19T12:05:28;27.71;59.70
70421;SHT31;57848;51.938;15.520;2022-08-19T12:07:54;27.47;59.78
70421;SHT31;57848;51.938;15.520;2022-08-19T12:10:20;27.28;60.02
70421;SHT31;57848;51.938;15.520;2022-08-19T12:12:45;27.25;60.10
70421;SHT31;57848;51.938;15.520;2022-08-19T12:15:12;27.57;58.96
70421;SHT31;57848;51.938;15.520;2022-08-19T12:17:37;27.49;58.84
70421;SHT31;57848;51.938;15.520;2022-08-19T12:20:04;27.28;59.39
70421;SHT31;57848;51.938;15.520;2022-08-19T12:22:30;27.36;59.46
70421;SHT31;57848;51.938;15.520;2022-08-19T12:24:55;26.76;60.56
70421;SHT31;57848;51.938;15.520;2022-08-19T12:27:29;26.71;61.01
70421;SHT31;57848;51.938;15.520;2022-08-19T12:29:54;26.61;61.70
70421;SHT31;57848;51.938;15.520;2022-08-19T12:32:19;26.77;61.47
70421;SHT31;57848;51.938;15.520;2022-08-19T12:34:46;26.71;61.50
70421;SHT31;57848;51.938;15.520;2022-08-19T12:37:13;26.78;61.31
70421;SHT31;57848;51.938;15.520;2022-08-19T12:39:40;26.63;61.60
70421;SHT31;57848;51.938;15.520;2022-08-19T12:42:07;26.58;61.80
70421;SHT31;57848;51.938;15.520;2022-08-19T12:44:35;26.88;61.16
70421;SHT31;57848;51.938;15.520;2022-08-19T12:47:00;27.76;59.60
70421;SHT31;57848;51.938;15.520;2022-08-19T12:49:31;28.49;56.71
70421;SHT31;57848;51.938;15.520;2022-08-19T12:52:05;28.47;55.89
70421;SHT31;57848;51.938;15.520;2022-08-19T12:54:31;28.55;56.10
70421;SHT31;57848;51.938;15.520;2022-08-19T12:56:57;28.56;56.80
70421;SHT31;57848;51.938;15.520;2022-08-19T12:59:23;28.99;55.79
70421;SHT31;57848;51.938;15.520;2022-08-19T13:01:48;29.55;54.93
70421;SHT31;57848;51.938;15.520;2022-08-19T13:04:14;30.01;53.56
70421;SHT31;57848;51.938;15.520;2022-08-19T13:06:40;30.84;51.62
70421;SHT31;57848;51.938;15.520;2022-08-19T13:09:05;30.97;50.47
70421;SHT31;57848;51.938;15.520;2022-08-19T13:11:31;31.46;49.62
70421;SHT31;57848;51.938;15.520;2022-08-19T13:13:59;31.04;50.54
70421;SHT31;57848;51.938;15.520;2022-08-19T13:16:25;30.53;52.14
70421;SHT31;57848;51.938;15.520;2022-08-19T13:18:52;30.40;52.42
70421;SHT31;57848;51.938;15.520;2022-08-19T13:21:19;30.28;52.28
70421;SHT31;57848;51.938;15.520;2022-08-19T13:23:45;29.91;52.85
70421;SHT31;57848;51.938;15.520;2022-08-19T13:26:12;29.92;53.09
70421;SHT31;57848;51.938;15.520;2022-08-19T13:28:39;29.71;53.28
70421;SHT31;57848;51.938;15.520;2022-08-19T13:31:25;29.86;53.00
70421;SHT31;57848;51.938;15.520;2022-08-19T13:34:09;29.77;53.85
70421;SHT31;57848;51.938;15.520;2022-08-19T13:36:36;29.94;53.60
70421;SHT31;57848;51.938;15.520;2022-08-19T13:39:03;29.72;53.69
70421;SHT31;57848;51.938;15.520;2022-08-19T13:41:28;29.29;54.18
70421;SHT31;57848;51.938;15.520;2022-08-19T13:43:54;29.38;54.77
70421;SHT31;57848;51.938;15.520;2022-08-19T13:46:20;29.34;54.79
70421;SHT31;57848;51.938;15.520;2022-08-19T13:48:46;28.88;55.36
70421;SHT31;57848;51.938;15.520;2022-08-19T13:51:13;29.10;55.54
70421;SHT31;57848;51.938;15.520;2022-08-19T13:53:38;28.80;55.83
70421;SHT31;57848;51.938;15.520;2022-08-19T13:56:09;28.92;56.59
70421;SHT31;57848;51.938;15.520;2022-08-19T13:58:36;28.49;56.12
70421;SHT31;57848;51.938;15.520;2022-08-19T14:01:02;28.66;56.09
70421;SHT31;57848;51.938;15.520;2022-08-19T14:03:28;28.40;56.82
70421;SHT31;57848;51.938;15.520;2022-08-19T14:05:53;28.45;57.15
70421;SHT31;57848;51.938;15.520;2022-08-19T14:08:19;28.45;56.90
70421;SHT31;57848;51.938;15.520;2022-08-19T14:10:45;28.28;57.19
70421;SHT31;57848;51.938;15.520;2022-08-19T14:13:14;28.18;57.69
70421;SHT31;57848;51.938;15.520;2022-08-19T14:15:41;28.15;57.78
70421;SHT31;57848;51.938;15.520;2022-08-19T14:18:06;28.21;57.67
70421;SHT31;57848;51.938;15.520;2022-08-19T14:20:34;28.25;57.79
70421;SHT31;57848;51.938;15.520;2022-08-19T14:23:00;28.25;57.84
70421;SHT31;57848;51.938;15.520;2022-08-19T14:25:28;28.17;57.97
70421;SHT31;57848;51.938;15.520;2022-08-19T14:27:54;28.00;58.50
70421;SHT31;57848;51.938;15.520;2022-08-19T14:30:27;28.08;58.26
70421;SHT31;57848;51.938;15.520;2022-08-19T14:32:54;28.04;58.36
70421;SHT31;57848;51.938;15.520;2022-08-19T14:35:20;27.69;58.87
70421;SHT31;57848;51.938;15.520;2022-08-19T14:37:47;27.66;59.57
70421;SHT31;57848;51.938;15.520;2022-08-19T14:40:16;27.55;59.67
70421;SHT31;57848;51.938;15.520;2022-08-19T14:42:42;27.50;60.05
70421;SHT31;57848;51.938;15.520;2022-08-19T14:45:09;27.49;60.11
70421;SHT31;57848;51.938;15.520;2022-08-19T14:47:34;27.62;60.16
70421;SHT31;57848;51.938;15.520;2022-08-19T14:50:00;27.63;59.27
70421;SHT31;57848;51.938;15.520;2022-08-19T14:52:25;27.67;58.89
70421;SHT31;57848;51.938;15.520;2022-08-19T14:54:51;27.77;59.27
70421;SHT31;57848;51.938;15.520;2022-08-19T14:57:16;27.80;59.70
70421;SHT31;57848;51.938;15.520;2022-08-19T14:59:43;27.66;58.96
70421;SHT31;57848;51.938;15.520;2022-08-19T15:02:09;27.60;59.32
70421;SHT31;57848;51.938;15.520;2022-08-19T15:04:34;27.65;59.14
70421;SHT31;57848;51.938;15.520;2022-08-19T15:06:59;27.55;59.38
70421;SHT31;57848;51.938;15.520;2022-08-19T15:09:25;27.69;60.02
70421;SHT31;57848;51.938;15.520;2022-08-19T15:11:50;27.74;60.01
70421;SHT31;57848;51.938;15.520;2022-08-19T15:14:15;27.73;59.37
70421;SHT31;57848;51.938;15.520;2022-08-19T15:16:42;27.87;59.30
70421;SHT31;57848;51.938;15.520;2022-08-19T15:19:08;27.89;59.16
70421;SHT31;57848;51.938;15.520;2022-08-19T15:21:34;27.96;59.11
70421;SHT31;57848;51.938;15.520;2022-08-19T15:23:59;28.01;58.50